Time;durP1;ratioP1;P1;durP2;ratioP2;P2;SDS_P1;SDS_P2;PMS_P1;PMS_P2;Temp;Humidity;BMP_temperature;BMP_pressure;BME280_temperature;BME280_humidity;BME280_pressure;Samples;Min_cycle;Max_cycle;Signal;HPM_P1;HPM_P2
2023/12/18 00:00:38;;;;;;;5.22;2.60;;;4.10;76.30;;;;;;5135537;27;20438;-62
2023/12/18 00:03:05;;;;;;;4.43;2.90;;;4.10;70.70;;;;;;5136270;27;20438;-64
2023/12/18 00:05:32;;;;;;;6.25;3.00;;;4.10;59.40;;;;;;5134464;27;20516;-60
2023/12/18 00:08:01;;;;;;;5.18;3.28;;;4.10;54.00;;;;;;5136056;27;20940;-61
2023/12/18 00:10:28;;;;;;;5.50;2.50;;;4.10;49.40;;;;;;5126418;27;20428;-59
2023/12/18 00:12:55;;;;;;;6.05;2.92;;;4.00;48.90;;;;;;5126673;27;20429;-60
2023/12/18 00:15:22;;;;;;;4.55;3.15;;;3.90;47.10;;;;;;5133310;27;20885;-60
2023/12/18 00:17:49;;;;;;;5.68;2.70;;;3.90;45.90;;;;;;5117502;27;20431;-60
2023/12/18 00:20:16;;;;;;;4.00;3.20;;;3.80;56.00;;;;;;5117849;27;20453;-60
2023/12/18 00:22:43;;;;;;;4.97;2.90;;;3.80;56.80;;;;;;5135455;27;20749;-60
2023/12/18 00:25:11;;;;;;;6.25;2.65;;;3.70;56.30;;;;;;5125056;27;20440;-60
2023/12/18 00:27:38;;;;;;;5.57;2.95;;;3.60;72.80;;;;;;5134627;27;20444;-60
2023/12/18 00:30:07;;;;;;;4.75;2.65;;;3.70;92.60;;;;;;5119474;27;20441;-61
2023/12/18 00:32:34;;;;;;;3.50;2.90;;;3.80;91.10;;;;;;5125618;27;20432;-60
2023/12/18 00:35:01;;;;;;;4.35;3.08;;;3.90;90.70;;;;;;5116035;28;20404;-60
2023/12/18 00:37:28;;;;;;;4.97;2.78;;;3.90;73.20;;;;;;5115635;28;20432;-60
2023/12/18 00:39:56;;;;;;;4.97;3.22;;;3.90;63.10;;;;;;5115635;28;20408;-60
2023/12/18 00:42:24;;;;;;;4.10;2.28;;;3.90;59.70;;;;;;5121592;27;20432;-60
2023/12/18 00:44:51;;;;;;;6.03;3.10;;;3.90;65.90;;;;;;5136811;27;20402;-60
2023/12/18 00:47:19;;;;;;;5.07;2.22;;;3.90;72.50;;;;;;5136332;27;20888;-60
2023/12/18 00:49:46;;;;;;;4.25;2.40;;;4.00;74.20;;;;;;5136438;27;20461;-60
2023/12/18 00:52:13;;;;;;;4.15;2.30;;;4.00;64.20;;;;;;5136217;27;20422;-60
2023/12/18 00:54:40;;;;;;;4.40;3.17;;;4.00;51.00;;;;;;5135984;27;20917;-60
2023/12/18 00:57:07;;;;;;;4.17;2.60;;;3.80;48.70;;;;;;5129176;27;20436;-60
2023/12/18 00:59:35;;;;;;;3.15;1.92;;;3.70;48.10;;;;;;5114123;28;20424;-59
2023/12/18 01:02:02;;;;;;;3.88;2.05;;;3.60;56.70;;;;;;5114551;28;20715;-60
2023/12/18 01:04:29;;;;;;;4.87;2.30;;;3.50;67.60;;;;;;5126119;27;20434;-60
2023/12/18 01:06:57;;;;;;;2.40;1.70;;;3.50;76.70;;;;;;5129606;27;20431;-60
2023/12/18 01:09:24;;;;;;;3.78;1.70;;;3.40;85.60;;;;;;5117486;27;20410;-60
2023/12/18 01:11:51;;;;;;;2.67;1.30;;;3.40;99.90;;;;;;5124958;27;20429;-60
2023/12/18 01:14:18;;;;;;;3.78;1.85;;;3.50;99.90;;;;;;5133030;27;20464;-60
2023/12/18 01:16:46;;;;;;;2.70;1.95;;;3.60;94.30;;;;;;5135743;27;20509;-60
2023/12/18 01:19:14;;;;;;;3.90;1.90;;;3.60;92.20;;;;;;5127136;27;20441;-60
2023/12/18 01:21:41;;;;;;;4.30;2.90;;;3.70;87.60;;;;;;5131777;27;20509;-59
2023/12/18 01:24:08;;;;;;;3.40;2.40;;;3.70;92.70;;;;;;5135450;27;20443;-60
2023/12/18 01:26:37;;;;;;;4.60;2.80;;;3.80;93.30;;;;;;5133570;27;20422;-59
2023/12/18 01:29:04;;;;;;;4.40;2.20;;;3.80;88.70;;;;;;5131801;27;20410;-60
2023/12/18 01:31:31;;;;;;;3.33;2.00;;;3.90;87.80;;;;;;5130964;27;20452;-60
2023/12/18 01:34:00;;;;;;;3.83;2.00;;;4.00;83.00;;;;;;5134493;27;20452;-60
2023/12/18 01:36:27;;;;;;;3.03;1.77;;;4.00;65.10;;;;;;5135641;27;20776;-59
2023/12/18 01:38:54;;;;;;;4.10;2.30;;;4.00;53.70;;;;;;5135067;27;20431;-60
2023/12/18 01:41:21;;;;;;;4.47;2.00;;;3.90;50.10;;;;;;5134651;27;20418;-60
2023/12/18 01:43:48;;;;;;;4.10;2.35;;;3.70;45.60;;;;;;5135226;27;20703;-60
2023/12/18 01:46:21;;;;;;;4.28;2.40;;;3.50;51.60;;;;;;5135510;27;20425;-59
2023/12/18 01:48:49;;;;;;;4.35;2.80;;;3.40;60.00;;;;;;5135272;27;20833;-60
2023/12/18 01:51:18;;;;;;;5.05;2.65;;;3.20;81.10;;;;;;5135003;27;20426;-60
2023/12/18 01:53:48;;;;;;;5.10;3.00;;;3.20;93.20;;;;;;5134440;27;20418;-60
2023/12/18 01:56:18;;;;;;;4.30;2.50;;;3.10;93.10;;;;;;5135029;27;20414;-60
2023/12/18 01:58:46;;;;;;;4.20;3.00;;;3.00;97.10;;;;;;5135041;28;20426;-60
2023/12/18 02:01:13;;;;;;;6.25;2.60;;;3.00;99.90;;;;;;5134972;27;20414;-60
2023/12/18 02:03:41;;;;;;;3.67;2.10;;;2.90;99.90;;;;;;5135284;28;20414;-60
2023/12/18 02:06:08;;;;;;;5.82;3.20;;;3.00;99.90;;;;;;5134782;28;20517;-60
2023/12/18 02:08:39;;;;;;;4.82;2.42;;;3.10;99.90;;;;;;5134380;28;20430;-60
2023/12/18 02:11:06;;;;;;;4.30;2.42;;;3.00;99.90;;;;;;5134401;28;20430;-61
2023/12/18 02:13:33;;;;;;;4.72;2.22;;;3.00;99.90;;;;;;5134765;28;20411;-60
2023/12/18 02:16:01;;;;;;;5.13;2.53;;;3.10;99.90;;;;;;5135251;28;20453;-60
2023/12/18 02:18:28;;;;;;;4.03;2.40;;;3.20;99.90;;;;;;5134908;28;20430;-59
2023/12/18 02:20:55;;;;;;;4.78;2.70;;;3.30;99.90;;;;;;5134942;28;20436;-60
2023/12/18 02:23:23;;;;;;;4.93;2.50;;;3.40;96.80;;;;;;5134762;28;20418;-60
2023/12/18 02:25:50;;;;;;;5.93;2.53;;;3.60;95.00;;;;;;5134613;28;20683;-60
2023/12/18 02:28:18;;;;;;;4.13;2.15;;;3.70;77.00;;;;;;5133953;28;20453;-60
2023/12/18 02:30:45;;;;;;;3.20;1.80;;;3.70;58.20;;;;;;5124720;28;20432;-60
2023/12/18 02:33:12;;;;;;;4.78;2.50;;;3.70;69.00;;;;;;5125069;28;20434;-59
2023/12/18 02:35:39;;;;;;;5.38;3.00;;;3.80;57.50;;;;;;5133348;28;20425;-60
2023/12/18 02:38:06;;;;;;;6.47;3.53;;;3.70;43.20;;;;;;5133316;28;20426;-59
2023/12/18 02:40:35;;;;;;;4.65;3.17;;;3.50;51.00;;;;;;5133415;28;20410;-59
2023/12/18 02:43:03;;;;;;;5.30;3.40;;;3.40;56.30;;;;;;5134191;28;20429;-60
2023/12/18 02:45:30;;;;;;;3.90;2.30;;;3.30;70.20;;;;;;5133761;28;20436;-60
2023/12/18 02:47:57;;;;;;;2.80;2.00;;;3.20;82.20;;;;;;5134127;28;20414;-60
2023/12/18 02:50:24;;;;;;;3.67;1.98;;;3.30;75.10;;;;;;5134164;28;20702;-60
2023/12/18 02:52:51;;;;;;;3.13;1.80;;;3.30;79.70;;;;;;5134505;28;20710;-60
2023/12/18 02:55:18;;;;;;;3.60;1.50;;;3.50;91.30;;;;;;5134619;28;20429;-60
2023/12/18 02:57:46;;;;;;;3.00;1.20;;;3.60;46.90;;;;;;5134958;28;20430;-60
2023/12/18 03:00:14;;;;;;;2.70;1.40;;;3.60;32.10;;;;;;5133659;28;20422;-60
2023/12/18 03:02:42;;;;;;;2.50;1.40;;;3.70;29.10;;;;;;5133577;28;20501;-60
2023/12/18 03:05:09;;;;;;;1.80;1.20;;;3.60;23.50;;;;;;5133265;28;20414;-60
2023/12/18 03:07:36;;;;;;;2.67;1.27;;;3.70;12.50;;;;;;5133329;28;20830;-59
2023/12/18 03:10:04;;;;;;;2.47;1.20;;;3.70;9.80;;;;;;5133354;28;20424;-60
2023/12/18 03:12:31;;;;;;;3.88;1.50;;;3.80;19.90;;;;;;5134389;27;20418;-60
2023/12/18 03:14:59;;;;;;;2.20;1.30;;;3.70;11.70;;;;;;5137547;27;20421;-60
2023/12/18 03:17:26;;;;;;;2.17;1.20;;;3.70;19.60;;;;;;5137689;27;20438;-60
2023/12/18 03:19:54;;;;;;;2.00;1.20;;;3.80;17.90;;;;;;5137780;27;20703;-60
2023/12/18 03:22:21;;;;;;;2.40;1.20;;;3.90;26.90;;;;;;5138128;27;20426;-59
2023/12/18 03:24:48;;;;;;;1.70;1.20;;;4.00;18.60;;;;;;5137990;27;20418;-60
2023/12/18 03:27:15;;;;;;;2.40;1.20;;;4.00;1.00;;;;;;5137737;27;20837;-60
2023/12/18 03:29:42;;;;;;;2.35;1.10;;;3.90;1.00;;;;;;5138053;27;20963;-60
2023/12/18 03:32:10;;;;;;;1.50;0.95;;;3.80;1.00;;;;;;5137883;27;20418;-60
2023/12/18 03:34:37;;;;;;;1.50;0.90;;;3.70;1.00;;;;;;5137963;27;20501;-60
2023/12/18 03:37:04;;;;;;;1.30;0.90;;;3.70;1.00;;;;;;5137784;27;20826;-60
2023/12/18 03:39:31;;;;;;;2.03;1.20;;;3.70;1.00;;;;;;5138046;27;20462;-60
2023/12/18 03:41:58;;;;;;;1.80;1.00;;;3.70;1.00;;;;;;5137224;27;20429;-60
2023/12/18 03:44:26;;;;;;;2.17;1.00;;;3.70;1.00;;;;;;5138132;27;20729;-60
2023/12/18 03:46:53;;;;;;;3.00;1.35;;;3.70;1.00;;;;;;5136934;27;20420;-60
2023/12/18 03:49:21;;;;;;;3.33;1.38;;;3.80;6.50;;;;;;5137986;27;20414;-59
2023/12/18 03:51:49;;;;;;;2.53;1.70;;;3.90;1.00;;;;;;5133057;27;20422;-60
2023/12/18 03:54:16;;;;;;;3.40;1.90;;;3.90;1.00;;;;;;5122224;27;20479;-60
2023/12/18 03:56:43;;;;;;;3.30;1.80;;;4.00;5.90;;;;;;5125586;27;20424;-59
2023/12/18 03:59:10;;;;;;;3.90;1.88;;;3.90;5.10;;;;;;5126332;27;20432;-59
2023/12/18 04:01:37;;;;;;;4.97;2.83;;;3.90;14.00;;;;;;5128035;27;20805;-59
2023/12/18 04:04:05;;;;;;;5.00;2.90;;;3.80;13.00;;;;;;5122858;27;20832;-59
2023/12/18 04:06:34;;;;;;;3.90;2.65;;;3.70;10.50;;;;;;5137196;27;20419;-59
2023/12/18 04:09:02;;;;;;;5.03;3.33;;;3.60;17.90;;;;;;5124666;27;20473;-60
2023/12/18 04:11:29;;;;;;;5.00;4.28;;;3.40;26.00;;;;;;5143995;27;20427;-59
2023/12/18 04:13:56;;;;;;;6.10;3.40;;;3.20;37.30;;;;;;5120003;27;20421;-59
2023/12/18 04:16:23;;;;;;;6.30;3.55;;;3.30;52.80;;;;;;5126174;27;20420;-59
2023/12/18 04:18:50;;;;;;;5.15;3.88;;;3.20;43.70;;;;;;5132599;27;20430;-59
2023/12/18 04:21:17;;;;;;;5.00;3.90;;;3.30;67.00;;;;;;5136972;27;20418;-61
2023/12/18 04:23:46;;;;;;;5.57;3.95;;;3.20;54.30;;;;;;5135099;27;20826;-59
2023/12/18 04:26:13;;;;;;;5.20;3.50;;;3.30;59.70;;;;;;5135801;27;20441;-59
2023/12/18 04:28:40;;;;;;;5.78;3.75;;;3.30;59.10;;;;;;5120949;27;20451;-59
2023/12/18 04:31:07;;;;;;;5.78;3.40;;;3.20;42.60;;;;;;5119191;27;20540;-59
2023/12/18 04:33:34;;;;;;;5.13;3.60;;;3.10;44.70;;;;;;5136181;27;20461;-59
2023/12/18 04:36:01;;;;;;;4.30;3.30;;;3.10;71.40;;;;;;5135947;27;20418;-59
2023/12/18 04:38:28;;;;;;;4.45;3.42;;;3.20;85.80;;;;;;5133950;27;20517;-59
2023/12/18 04:40:58;;;;;;;4.40;3.45;;;3.30;82.00;;;;;;5122209;27;20520;-59
2023/12/18 04:43:25;;;;;;;5.30;3.75;;;3.50;73.50;;;;;;5130484;27;20425;-60
2023/12/18 04:45:52;;;;;;;5.88;2.83;;;3.50;51.90;;;;;;5133205;27;20426;-59
2023/12/18 04:48:19;;;;;;;5.55;3.55;;;3.40;27.20;;;;;;5133347;27;20834;-59
2023/12/18 04:50:46;;;;;;;5.55;3.38;;;3.30;26.80;;;;;;5119123;27;20427;-59
2023/12/18 04:53:13;;;;;;;4.10;3.00;;;3.20;42.20;;;;;;5152454;27;20717;-59
2023/12/18 04:55:40;;;;;;;6.10;3.90;;;3.10;43.50;;;;;;5136483;27;20415;-59
2023/12/18 04:58:09;;;;;;;5.97;3.42;;;3.00;47.90;;;;;;5135914;27;20438;-59
2023/12/18 05:00:36;;;;;;;5.38;3.25;;;3.00;46.40;;;;;;5135845;27;20430;-59
2023/12/18 05:03:03;;;;;;;5.05;3.08;;;3.00;51.10;;;;;;5124554;27;20424;-60
2023/12/18 05:05:30;;;;;;;5.47;3.10;;;2.90;60.80;;;;;;5134859;27;20420;-59
2023/12/18 05:07:57;;;;;;;3.10;2.10;;;2.90;64.50;;;;;;5115424;27;20415;-60
2023/12/18 05:10:24;;;;;;;4.90;2.00;;;2.90;68.00;;;;;;5115396;28;20464;-57
2023/12/18 05:12:51;;;;;;;4.95;2.85;;;2.90;71.00;;;;;;5125169;27;20853;-59
2023/12/18 05:15:20;;;;;;;5.30;2.38;;;2.90;57.40;;;;;;5135506;27;20438;-60
2023/12/18 05:17:47;;;;;;;4.32;2.40;;;2.90;53.20;;;;;;5135299;27;20423;-59
2023/12/18 05:20:14;;;;;;;3.15;2.00;;;2.90;66.40;;;;;;5135142;27;20415;-60
2023/12/18 05:22:41;;;;;;;3.35;2.05;;;2.90;65.30;;;;;;5126012;27;20831;-60
2023/12/18 05:25:10;;;;;;;2.40;1.30;;;2.80;72.70;;;;;;5115550;28;20446;-59
2023/12/18 05:27:37;;;;;;;1.83;1.10;;;2.80;71.70;;;;;;5133331;27;20479;-59
2023/12/18 05:30:05;;;;;;;1.90;1.15;;;2.80;72.30;;;;;;5134224;27;20422;-59
2023/12/18 05:32:33;;;;;;;3.30;1.30;;;2.90;62.80;;;;;;5134956;27;20426;-59
2023/12/18 05:35:00;;;;;;;3.03;1.50;;;2.90;52.00;;;;;;5131055;27;20431;-58
2023/12/18 05:37:27;;;;;;;3.05;1.40;;;2.80;46.20;;;;;;5133818;27;20745;-59
2023/12/18 05:39:54;;;;;;;2.90;1.50;;;2.80;45.70;;;;;;5133669;27;20437;-59
2023/12/18 05:42:21;;;;;;;4.03;1.90;;;2.80;39.90;;;;;;5133696;27;20427;-59
2023/12/18 05:44:48;;;;;;;2.63;1.40;;;2.70;48.50;;;;;;5134401;27;20442;-60
2023/12/18 05:47:15;;;;;;;2.92;1.52;;;2.70;52.40;;;;;;5128774;27;20437;-59
2023/12/18 05:49:44;;;;;;;2.53;1.80;;;2.70;48.30;;;;;;5133537;27;20422;-60
2023/12/18 05:52:11;;;;;;;3.90;1.60;;;2.70;62.00;;;;;;5130014;27;20449;-59
2023/12/18 05:54:39;;;;;;;2.72;1.60;;;2.80;77.00;;;;;;5115523;27;20428;-60
2023/12/18 05:57:06;;;;;;;2.30;1.75;;;2.90;69.90;;;;;;5114895;28;20937;-59
2023/12/18 05:59:33;;;;;;;3.00;1.30;;;2.90;55.30;;;;;;5114530;28;20435;-59
2023/12/18 06:02:00;;;;;;;2.80;1.40;;;2.90;45.90;;;;;;5127560;28;20411;-60
2023/12/18 06:04:27;;;;;;;4.70;1.70;;;3.00;74.30;;;;;;5134563;28;20414;-61
2023/12/18 06:06:56;;;;;;;2.50;1.60;;;3.10;59.20;;;;;;5132320;28;20621;-61
2023/12/18 06:09:23;;;;;;;4.57;1.92;;;3.20;51.50;;;;;;5128628;28;20422;-61
2023/12/18 06:11:50;;;;;;;3.70;1.50;;;3.20;49.60;;;;;;5134308;28;20782;-60
2023/12/18 06:14:17;;;;;;;3.93;1.77;;;3.30;48.10;;;;;;5129918;28;20488;-59
2023/12/18 06:16:44;;;;;;;3.08;1.80;;;3.30;45.20;;;;;;5122243;28;20432;-60
2023/12/18 06:19:12;;;;;;;2.63;1.50;;;3.30;40.10;;;;;;5121825;28;20430;-61
2023/12/18 06:21:41;;;;;;;4.60;2.00;;;3.20;40.00;;;;;;5132374;28;20434;-61
2023/12/18 06:24:10;;;;;;;3.28;1.80;;;3.30;48.10;;;;;;5132385;28;20853;-59
2023/12/18 06:26:38;;;;;;;2.53;1.70;;;3.40;43.50;;;;;;5127731;27;20462;-60
2023/12/18 06:29:05;;;;;;;4.78;2.10;;;3.30;34.30;;;;;;5132211;28;20849;-60
2023/12/18 06:31:32;;;;;;;4.35;1.90;;;3.30;23.10;;;;;;5131812;27;20746;-60
2023/12/18 06:33:59;;;;;;;4.10;2.00;;;3.20;34.60;;;;;;5125034;28;20449;-60
2023/12/18 06:36:27;;;;;;;2.93;1.70;;;3.20;39.80;;;;;;5135511;27;20429;-59
2023/12/18 06:38:55;;;;;;;4.22;1.50;;;3.10;38.70;;;;;;5135487;27;21199;-60
2023/12/18 06:41:23;;;;;;;3.05;1.50;;;3.10;34.90;;;;;;5123810;27;20829;-61
2023/12/18 06:43:54;;;;;;;3.63;1.40;;;3.10;42.40;;;;;;5128539;28;20430;-62
2023/12/18 06:46:22;;;;;;;1.95;1.10;;;3.00;43.90;;;;;;5124047;27;20447;-59
2023/12/18 06:48:49;;;;;;;4.00;1.30;;;3.10;41.10;;;;;;5137679;27;20418;-59
2023/12/18 06:51:17;;;;;;;2.50;1.30;;;3.00;38.00;;;;;;5132784;27;20520;-60
2023/12/18 06:53:44;;;;;;;2.15;1.27;;;3.00;34.20;;;;;;5138347;27;20518;-59
2023/12/18 06:56:11;;;;;;;3.72;1.70;;;2.90;37.10;;;;;;5137878;27;20939;-59
2023/12/18 06:58:40;;;;;;;4.68;2.28;;;2.90;46.50;;;;;;5137837;27;20434;-59
2023/12/18 07:01:07;;;;;;;3.40;1.60;;;2.90;43.30;;;;;;5137575;27;21076;-59
2023/12/18 07:03:34;;;;;;;5.00;1.90;;;2.80;46.30;;;;;;5137525;27;20477;-59
2023/12/18 07:06:02;;;;;;;4.13;2.10;;;2.80;49.50;;;;;;5136468;27;20829;-59
2023/12/18 07:08:29;;;;;;;2.72;2.38;;;2.80;61.90;;;;;;5137632;27;20418;-60
2023/12/18 07:10:57;;;;;;;3.80;2.08;;;2.80;66.30;;;;;;5138589;27;20425;-61
2023/12/18 07:16:40;;;;;;;4.82;1.73;;;2.70;56.10;;;;;;5150625;27;20349;-61
2023/12/18 07:19:07;;;;;;;3.87;1.30;;;2.70;55.90;;;;;;5150147;27;20473;-53
2023/12/18 07:21:34;;;;;;;2.45;1.20;;;2.70;50.30;;;;;;5147983;27;20434;-53
2023/12/18 07:24:02;;;;;;;3.30;1.40;;;2.70;61.20;;;;;;5146647;27;20441;-54
2023/12/18 07:26:29;;;;;;;2.40;1.30;;;2.70;75.30;;;;;;5146934;27;20422;-56
2023/12/18 07:28:56;;;;;;;2.05;1.30;;;2.70;70.10;;;;;;5149970;27;20414;-57
2023/12/18 07:31:23;;;;;;;2.90;1.30;;;2.80;74.30;;;;;;5147765;27;20448;-57
2023/12/18 07:33:52;;;;;;;3.22;1.95;;;2.90;72.50;;;;;;5149400;27;20871;-58
2023/12/18 07:36:19;;;;;;;3.83;1.40;;;2.90;55.90;;;;;;5149399;27;20438;-58
2023/12/18 07:38:46;;;;;;;4.07;1.83;;;2.90;58.80;;;;;;5148764;27;20428;-58
2023/12/18 07:41:13;;;;;;;3.97;2.08;;;3.00;83.30;;;;;;5149191;27;20409;-58
2023/12/18 07:43:40;;;;;;;5.10;2.70;;;3.20;66.60;;;;;;5149583;27;20418;-58
2023/12/18 07:46:17;;;;;;;3.50;1.90;;;3.20;57.40;;;;;;5139325;27;20443;-58
2023/12/18 07:48:47;;;;;;;4.88;2.00;;;3.30;58.90;;;;;;5150645;27;20433;-58
2023/12/18 07:51:16;;;;;;;5.10;2.13;;;3.30;52.60;;;;;;5148478;27;20800;-58
2023/12/18 07:53:44;;;;;;;3.10;1.80;;;3.20;43.40;;;;;;5148071;27;20537;-58
2023/12/18 07:56:11;;;;;;;2.45;1.05;;;3.20;32.00;;;;;;5147630;27;20426;-58
2023/12/18 07:58:40;;;;;;;2.50;1.20;;;3.10;32.30;;;;;;5147835;27;20429;-58
2023/12/18 08:01:07;;;;;;;2.80;1.58;;;3.00;33.70;;;;;;5148022;27;20433;-58
2023/12/18 08:03:34;;;;;;;1.80;1.30;;;3.00;34.70;;;;;;5147389;27;20515;-59
2023/12/18 08:06:01;;;;;;;2.60;1.38;;;2.80;32.00;;;;;;5150397;27;20760;-58
2023/12/18 08:08:29;;;;;;;3.65;1.98;;;2.90;50.70;;;;;;5150871;27;20845;-58
2023/12/18 08:10:56;;;;;;;2.90;1.83;;;2.90;45.30;;;;;;5148946;27;20756;-56
2023/12/18 08:13:24;;;;;;;4.28;1.50;;;2.90;33.10;;;;;;5148754;27;20861;-56
2023/12/18 08:15:51;;;;;;;4.13;1.70;;;2.80;26.70;;;;;;5132616;27;20461;-56
2023/12/18 08:18:18;;;;;;;4.45;2.08;;;2.80;30.00;;;;;;5147588;27;20434;-57
2023/12/18 08:20:46;;;;;;;4.35;2.40;;;2.70;36.20;;;;;;5149092;27;20434;-57
2023/12/18 08:23:13;;;;;;;3.10;1.90;;;2.70;45.10;;;;;;5147587;27;20837;-58
2023/12/18 08:25:41;;;;;;;3.20;1.90;;;2.70;44.30;;;;;;5147059;27;20432;-57
2023/12/18 08:28:08;;;;;;;4.20;1.92;;;2.70;52.40;;;;;;5132480;27;20430;-58
2023/12/18 08:30:36;;;;;;;3.63;1.98;;;2.70;48.10;;;;;;5125962;27;20438;-58
2023/12/18 08:33:03;;;;;;;5.47;2.28;;;2.70;50.50;;;;;;5131660;27;20853;-59
2023/12/18 08:35:30;;;;;;;3.17;1.80;;;2.70;49.50;;;;;;5131090;27;20440;-59
2023/12/18 08:37:57;;;;;;;3.57;1.90;;;2.80;47.00;;;;;;5129858;27;20925;-55
2023/12/18 08:40:24;;;;;;;3.97;2.03;;;2.80;60.60;;;;;;5127725;27;20441;-58
2023/12/18 08:42:53;;;;;;;4.43;1.90;;;2.90;69.80;;;;;;5132055;27;20439;-56
2023/12/18 08:45:20;;;;;;;3.58;1.60;;;3.10;63.00;;;;;;5129776;27;20437;-54
2023/12/18 08:47:47;;;;;;;4.50;1.60;;;3.20;52.20;;;;;;5130649;27;20888;-55
2023/12/18 08:50:14;;;;;;;2.85;1.60;;;3.30;37.30;;;;;;5129324;27;20434;-54
2023/12/18 08:52:41;;;;;;;2.85;1.70;;;3.30;35.00;;;;;;5129682;27;20447;-55
2023/12/18 08:55:09;;;;;;;3.70;1.60;;;3.30;28.40;;;;;;5132553;27;20441;-57
2023/12/18 08:57:36;;;;;;;2.50;1.30;;;3.30;31.70;;;;;;5133002;27;20507;-57
2023/12/18 09:00:06;;;;;;;2.60;1.48;;;3.40;38.90;;;;;;5130757;27;20872;-56
2023/12/18 09:02:33;;;;;;;3.00;1.40;;;3.50;42.40;;;;;;5130167;27;20441;-56
2023/12/18 09:05:00;;;;;;;3.10;1.70;;;3.50;24.80;;;;;;5132920;27;20415;-57
2023/12/18 09:07:27;;;;;;;2.92;1.80;;;3.90;63.20;;;;;;5131861;27;20434;-55
2023/12/18 09:09:54;;;;;;;3.50;1.70;;;4.50;32.50;;;;;;5127814;27;20442;-57
2023/12/18 09:12:21;;;;;;;2.55;1.60;;;5.20;14.70;;;;;;5132029;27;20434;-58
2023/12/18 09:14:49;;;;;;;3.70;1.83;;;5.10;1.00;;;;;;5133727;27;20431;-58
2023/12/18 09:17:17;;;;;;;3.20;1.40;;;5.00;1.00;;;;;;5133484;27;20830;-59
2023/12/18 09:19:44;;;;;;;3.85;1.75;;;4.90;1.00;;;;;;5133053;27;20522;-59
2023/12/18 09:22:11;;;;;;;2.70;1.70;;;5.20;1.00;;;;;;5133237;27;20429;-59
2023/12/18 09:24:38;;;;;;;2.72;1.65;;;5.20;1.00;;;;;;5132099;27;20441;-59
2023/12/18 09:27:05;;;;;;;2.73;1.33;;;5.20;1.00;;;;;;5130701;27;20737;-58
2023/12/18 09:29:33;;;;;;;2.33;1.50;;;5.30;1.00;;;;;;5130687;27;20485;-59
2023/12/18 09:32:00;;;;;;;3.50;1.80;;;5.30;1.00;;;;;;5131786;27;20430;-62
2023/12/18 09:34:29;;;;;;;3.90;1.60;;;5.30;1.00;;;;;;5131080;27;20442;-58
2023/12/18 09:36:56;;;;;;;2.60;1.63;;;5.30;1.00;;;;;;5130664;27;20434;-59
2023/12/18 09:39:23;;;;;;;3.30;1.52;;;5.40;1.00;;;;;;5128672;27;20442;-59
2023/12/18 09:41:50;;;;;;;3.10;2.00;;;5.40;1.00;;;;;;5132251;27;20442;-59
2023/12/18 09:44:17;;;;;;;3.70;2.10;;;5.50;1.00;;;;;;5126413;27;20652;-59
2023/12/18 09:46:44;;;;;;;3.65;1.90;;;5.50;1.00;;;;;;5126320;27;20468;-58
2023/12/18 09:49:11;;;;;;;6.63;2.00;;;5.30;1.00;;;;;;5133341;27;21031;-58
2023/12/18 09:51:42;;;;;;;2.85;2.00;;;5.20;1.00;;;;;;5134572;27;20856;-58
2023/12/18 09:54:10;;;;;;;3.00;1.70;;;5.10;1.00;;;;;;5132884;27;20754;-58
2023/12/18 09:56:38;;;;;;;3.33;2.50;;;5.00;1.00;;;;;;5131950;27;20714;-59
2023/12/18 09:59:06;;;;;;;4.30;1.83;;;5.10;1.00;;;;;;5131747;27;20430;-58
2023/12/18 10:01:34;;;;;;;3.83;1.70;;;5.20;1.00;;;;;;5130251;27;20430;-59
2023/12/18 10:04:01;;;;;;;3.15;1.90;;;5.30;1.00;;;;;;5133258;27;20438;-58
2023/12/18 10:06:28;;;;;;;4.05;2.38;;;5.40;1.00;;;;;;5132549;27;20458;-58
2023/12/18 10:08:57;;;;;;;2.97;2.00;;;5.60;1.00;;;;;;5133673;27;20429;-58
2023/12/18 10:11:25;;;;;;;3.53;2.20;;;5.90;1.00;;;;;;5128127;27;20880;-58
2023/12/18 10:13:53;;;;;;;2.50;1.80;;;6.10;1.00;;;;;;5131621;27;20502;-59
2023/12/18 10:16:20;;;;;;;3.13;1.52;;;6.10;1.00;;;;;;5128591;27;20434;-59
2023/12/18 10:18:47;;;;;;;3.10;2.20;;;6.10;1.00;;;;;;5122076;27;20846;-58
2023/12/18 10:21:21;;;;;;;2.30;1.80;;;6.00;1.00;;;;;;5130886;27;20849;-58
2023/12/18 10:23:49;;;;;;;4.70;2.20;;;6.20;1.00;;;;;;5135062;27;20734;-59
2023/12/18 10:26:17;;;;;;;4.00;2.40;;;6.90;1.00;;;;;;5129025;27;20423;-58
2023/12/18 10:28:44;;;;;;;3.40;2.58;;;7.30;1.00;;;;;;5132122;27;20772;-59
2023/12/18 10:31:12;;;;;;;6.32;3.20;;;7.10;1.00;;;;;;5133158;27;20430;-59
2023/12/18 10:33:39;;;;;;;4.40;3.00;;;7.00;1.00;;;;;;5130933;27;20529;-60
2023/12/18 10:36:09;;;;;;;3.03;2.13;;;7.00;1.00;;;;;;5127318;27;20430;-59
2023/12/18 10:38:37;;;;;;;4.43;2.92;;;6.80;1.00;;;;;;5128535;27;20438;-59
2023/12/18 10:41:05;;;;;;;3.50;2.55;;;6.70;1.00;;;;;;5130451;27;20434;-60
2023/12/18 10:43:35;;;;;;;4.00;2.80;;;6.60;1.00;;;;;;5129490;27;20967;-59
2023/12/18 10:46:03;;;;;;;5.85;2.40;;;6.60;1.00;;;;;;5129179;27;20438;-59
2023/12/18 10:48:31;;;;;;;4.47;2.53;;;6.60;1.00;;;;;;5116696;27;20889;-59
2023/12/18 10:51:01;;;;;;;3.55;2.55;;;6.70;1.00;;;;;;5124907;27;20468;-60
2023/12/18 10:53:33;;;;;;;4.28;2.90;;;6.90;1.00;;;;;;5126313;27;20469;-60
2023/12/18 10:56:03;;;;;;;4.80;2.87;;;7.10;1.00;;;;;;5123411;27;20727;-59
2023/12/18 10:58:34;;;;;;;3.90;2.40;;;7.30;1.00;;;;;;5126777;27;20470;-59
2023/12/18 11:01:03;;;;;;;6.47;2.60;;;7.60;1.00;;;;;;5118472;27;20441;-59
2023/12/18 11:03:31;;;;;;;4.93;2.50;;;7.70;1.00;;;;;;5126763;27;20430;-60
2023/12/18 11:05:58;;;;;;;5.32;2.75;;;7.70;1.00;;;;;;5128965;27;20457;-60
2023/12/18 11:08:25;;;;;;;4.95;2.63;;;7.80;1.00;;;;;;5126613;27;20491;-60
2023/12/18 11:10:54;;;;;;;3.90;3.00;;;7.80;1.00;;;;;;5124708;27;20434;-60
2023/12/18 11:13:27;;;;;;;4.50;3.00;;;7.90;1.00;;;;;;5119356;27;20434;-60
2023/12/18 11:16:05;;;;;;;4.95;3.45;;;7.90;1.00;;;;;;5127150;27;20845;-60
2023/12/18 11:18:44;;;;;;;3.95;2.72;;;7.80;1.00;;;;;;5125613;27;20872;-60
2023/12/18 11:21:11;;;;;;;3.78;2.63;;;7.90;1.00;;;;;;5126657;27;20434;-60
2023/12/18 11:23:40;;;;;;;5.40;3.00;;;8.00;1.00;;;;;;5127257;27;20434;-60
2023/12/18 11:26:11;;;;;;;4.57;3.00;;;8.20;1.00;;;;;;5127118;27;20496;-60
2023/12/18 11:28:38;;;;;;;5.68;2.90;;;8.40;1.00;;;;;;5128937;27;20471;-59
2023/12/18 11:31:08;;;;;;;4.23;2.67;;;8.50;1.00;;;;;;5128268;27;20441;-59
2023/12/18 11:33:35;;;;;;;4.50;3.40;;;8.50;99.90;;;;;;5122803;28;20441;-61
2023/12/18 11:36:02;;;;;;;6.18;3.72;;;8.40;99.90;;;;;;5124250;27;20426;-60
2023/12/18 11:38:33;;;;;;;4.30;3.05;;;8.30;99.90;;;;;;5109085;28;20445;-59
2023/12/18 11:41:01;;;;;;;6.65;4.05;;;8.30;99.90;;;;;;5118199;27;21008;-60
2023/12/18 11:43:35;;;;;;;4.40;3.33;;;8.30;99.90;;;;;;5124192;27;21125;-59
2023/12/18 11:46:08;;;;;;;5.65;3.90;;;8.30;99.90;;;;;;5117194;27;20422;-59
2023/12/18 11:48:35;;;;;;;3.95;3.13;;;8.10;99.90;;;;;;5128771;27;20449;-60
2023/12/18 11:51:03;;;;;;;3.70;3.25;;;8.00;99.90;;;;;;5132764;28;21175;-60
2023/12/18 11:53:35;;;;;;;4.13;3.07;;;8.00;1.00;;;;;;5131861;28;20925;-60
2023/12/18 11:56:08;;;;;;;5.63;3.00;;;8.00;99.90;;;;;;5129402;28;20525;-59
2023/12/18 11:58:37;;;;;;;7.20;3.30;;;8.00;1.00;;;;;;5130953;27;20498;-59
2023/12/18 12:01:05;;;;;;;8.20;4.37;;;8.10;1.00;;;;;;5112924;27;20442;-59
2023/12/18 12:03:34;;;;;;;6.20;3.85;;;8.20;99.90;;;;;;5117127;28;20456;-59
2023/12/18 12:06:03;;;;;;;6.07;3.73;;;8.10;1.00;;;;;;5132496;27;20449;-59
2023/12/18 12:08:30;;;;;;;3.70;2.73;;;8.30;1.00;;;;;;5128495;27;20509;-60
2023/12/18 12:10:58;;;;;;;4.40;3.00;;;8.60;1.00;;;;;;5132909;27;20422;-55
2023/12/18 12:13:26;;;;;;;5.78;3.45;;;8.70;99.90;;;;;;5136455;27;20458;-55
2023/12/18 12:15:55;;;;;;;5.72;2.90;;;8.80;99.90;;;;;;5133770;27;20862;-57
2023/12/18 12:18:23;;;;;;;5.10;3.45;;;8.90;99.90;;;;;;5137160;27;20511;-57
2023/12/18 12:20:51;;;;;;;4.63;3.28;;;8.80;1.00;;;;;;5134992;27;20457;-56
2023/12/18 12:23:18;;;;;;;5.10;4.30;;;8.90;99.90;;;;;;5132215;27;20719;-54
2023/12/18 12:25:47;;;;;;;5.57;3.60;;;8.50;1.00;;;;;;5133315;27;20434;-56
2023/12/18 12:28:15;;;;;;;6.22;4.05;;;8.50;99.90;;;;;;5134149;27;20760;-55
2023/12/18 12:30:43;;;;;;;4.10;2.97;;;8.60;81.90;;;;;;5124515;27;20464;-57
2023/12/18 12:33:10;;;;;;;5.60;4.38;;;8.50;95.90;;;;;;5135936;27;20418;-55
2023/12/18 12:35:37;;;;;;;6.40;3.88;;;8.60;99.90;;;;;;5133456;27;20738;-55
2023/12/18 12:38:07;;;;;;;3.55;3.25;;;8.60;99.90;;;;;;5134471;27;20418;-57
2023/12/18 12:40:38;;;;;;;5.25;3.95;;;8.70;99.90;;;;;;5130885;27;20438;-55
2023/12/18 12:43:06;;;;;;;8.13;4.22;;;8.80;99.90;;;;;;5132969;27;21008;-54
2023/12/18 12:45:34;;;;;;;4.18;3.10;;;8.80;99.90;;;;;;5130432;27;20445;-58
2023/12/18 12:48:01;;;;;;;6.10;3.80;;;8.80;99.90;;;;;;5133146;27;20422;-57
2023/12/18 12:50:28;;;;;;;6.53;5.05;;;8.80;99.90;;;;;;5131656;27;20426;-58
2023/12/18 12:52:59;;;;;;;6.80;4.93;;;9.00;99.90;;;;;;5134797;27;20430;-58
2023/12/18 12:55:28;;;;;;;5.63;3.88;;;9.10;99.90;;;;;;5132217;27;20897;-58
2023/12/18 12:57:55;;;;;;;7.05;4.18;;;9.10;99.90;;;;;;5131337;27;20520;-58
2023/12/18 13:00:23;;;;;;;6.68;3.88;;;9.10;99.90;;;;;;5136863;27;20426;-58
2023/12/18 13:02:50;;;;;;;6.00;4.60;;;9.10;99.90;;;;;;5131229;27;20434;-58
2023/12/18 13:05:17;;;;;;;4.63;4.18;;;9.00;99.90;;;;;;5130478;27;20493;-58